Time;durP1;ratioP1;P1;durP2;ratioP2;P2;SDS_P1;SDS_P2;PMS_P1;PMS_P2;Temp;Humidity;BMP_temperature;BMP_pressure;BME280_temperature;BME280_humidity;BME280_pressure;Samples;Min_cycle;Max_cycle;Signal;HPM_P1;HPM_P2
2023/10/10 00:02:18;;;;;;;9.15;4.35;;;;;;;;;;4972808;28;98828;-85
2023/10/10 00:04:44;;;;;;;;;;;;;;;;;;4940207;28;97843;-89
2023/10/10 00:07:14;;;;;;;12.25;6.00;;;;;;;;;;4949762;28;100748;-89
2023/10/10 00:09:43;;;;;;;10.20;4.47;;;;;;;;;;4919600;28;99720;-89
2023/10/10 00:12:13;;;;;;;12.75;4.80;;;;;;;;;;4928564;28;99296;-88
2023/10/10 00:14:39;;;;;;;8.88;4.40;;;;;;;;;;4923668;28;99671;-86
2023/10/10 00:17:08;;;;;;;9.32;4.70;;;;;;;;;;4958865;28;99158;-88
2023/10/10 00:19:45;;;;;;;9.90;4.68;;;;;;;;;;4967559;28;100068;-88
2023/10/10 00:22:12;;;;;;;9.80;4.63;;;;;;;;;;4940603;28;99192;-89
2023/10/10 00:24:38;;;;;;;10.18;4.30;;;;;;;;;;4954399;28;98491;-89
2023/10/10 00:27:15;;;;;;;11.48;5.28;;;;;;;;;;4956216;28;99057;-88
2023/10/10 00:29:44;;;;;;;9.98;4.28;;;;;;;;;;4938342;28;98295;-88
2023/10/10 00:32:17;;;;;;;10.38;4.50;;;;;;;;;;4950225;28;99118;-88
2023/10/10 00:34:48;;;;;;;9.63;4.25;;;;;;;;;;4964671;28;101762;-88
2023/10/10 00:37:20;;;;;;;11.95;5.03;;;;;;;;;;4929473;28;101657;-89
2023/10/10 00:39:52;;;;;;;10.98;4.68;;;;;;;;;;4963595;28;99721;-88
2023/10/10 00:42:40;;;;;;;10.38;4.50;;;;;;;;;;4949588;28;106343;-88
2023/10/10 00:45:13;;;;;;;9.55;4.90;;;;;;;;;;4962563;28;98981;-88
2023/10/10 00:47:43;;;;;;;10.10;4.63;;;;;;;;;;4968451;28;100188;-88
2023/10/10 00:50:16;;;;;;;12.27;5.78;;;;;;;;;;4949216;28;99026;-88
2023/10/10 00:52:48;;;;;;;16.50;8.13;;;;;;;;;;4957491;28;98704;-88
2023/10/10 00:55:21;;;;;;;11.73;5.97;;;;;;;;;;4952018;28;101054;-88
2023/10/10 00:57:52;;;;;;;11.35;5.45;;;;;;;;;;4946774;28;99257;-88
2023/10/10 01:00:20;;;;;;;11.02;4.88;;;;;;;;;;4963764;28;98907;-87
2023/10/10 01:02:49;;;;;;;10.85;5.70;;;;;;;;;;4956746;28;99379;-86
2023/10/10 01:05:23;;;;;;;10.25;4.97;;;;;;;;;;4951186;28;99158;-88
2023/10/10 01:07:51;;;;;;;11.05;5.18;;;;;;;;;;4963723;28;99867;-88
2023/10/10 01:10:17;;;;;;;9.30;4.40;;;;;;;;;;4944106;28;99136;-89
2023/10/10 01:12:46;;;;;;;12.68;5.03;;;;;;;;;;4944453;28;98716;-88
2023/10/10 01:15:57;;;;;;;10.90;5.18;;;;;;;;;;4967480;28;98894;-88
2023/10/10 01:18:03;;;;;;;10.23;4.60;;;;;;;;;;4968606;28;99731;-88
2023/10/10 01:20:36;;;;;;;12.82;5.60;;;;;;;;;;4963620;28;98955;-88
2023/10/10 01:23:03;;;;;;;13.52;6.78;;;;;;;;;;4958391;28;99065;-88
2023/10/10 01:25:42;;;;;;;13.57;7.35;;;;;;;;;;4960268;28;98566;-88
2023/10/10 01:28:43;;;;;;;12.07;5.88;;;;;;;;;;4954691;28;101612;-88
2023/10/10 01:31:10;;;;;;;11.73;5.50;;;;;;;;;;4966320;28;105649;-88
2023/10/10 01:33:42;;;;;;;10.27;5.30;;;;;;;;;;4933825;28;98808;-89
2023/10/10 01:36:13;;;;;;;10.95;5.03;;;;;;;;;;4956760;28;98964;-88
2023/10/10 01:38:44;;;;;;;12.52;5.85;;;;;;;;;;4943717;28;99147;-88
2023/10/10 01:41:38;;;;;;;9.77;5.20;;;;;;;;;;4957953;28;98823;-88
2023/10/10 01:44:10;;;;;;;11.73;5.07;;;;;;;;;;4949167;28;98661;-88
2023/10/10 01:46:37;;;;;;;10.25;5.35;;;;;;;;;;4946063;28;99587;-89
2023/10/10 01:49:08;;;;;;;10.10;4.72;;;;;;;;;;4955066;28;101098;-88
2023/10/10 01:51:34;;;;;;;11.75;5.20;;;;;;;;;;4958420;28;100763;-89
2023/10/10 01:54:13;;;;;;;12.00;5.38;;;;;;;;;;4954106;28;100134;-89
2023/10/10 01:56:41;;;;;;;9.02;5.05;;;;;;;;;;4957752;28;100083;-89
2023/10/10 01:59:13;;;;;;;11.85;5.30;;;;;;;;;;4947324;28;101995;-90
2023/10/10 02:01:41;;;;;;;10.95;5.53;;;;;;;;;;4947016;28;99065;-90
2023/10/10 02:04:08;;;;;;;9.75;4.75;;;;;;;;;;4946675;28;99273;-89
2023/10/10 02:06:35;;;;;;;10.70;6.00;;;;;;;;;;4946238;28;99141;-89
2023/10/10 02:09:11;;;;;;;10.68;6.00;;;;;;;;;;4958789;28;98818;-89
2023/10/10 02:11:39;;;;;;;10.82;5.05;;;;;;;;;;4948711;28;99004;-89
2023/10/10 02:14:11;;;;;;;10.70;5.78;;;;;;;;;;4947686;28;98952;-90
2023/10/10 02:16:40;;;;;;;11.07;6.10;;;;;;;;;;4966831;28;99044;-88
2023/10/10 02:19:24;;;;;;;11.48;5.70;;;;;;;;;;4957257;28;99835;-90
2023/10/10 02:22:03;;;;;;;11.13;5.78;;;;;;;;;;4960140;28;98575;-89
2023/10/10 02:26:56;;;;;;;10.77;5.43;;;;;;;;;;4958449;28;100267;-88
2023/10/10 02:32:06;;;;;;;12.07;6.35;;;;;;;;;;4963412;28;101699;-88
2023/10/10 02:34:36;;;;;;;9.65;4.88;;;;;;;;;;4951925;28;100238;-88
2023/10/10 02:37:30;;;;;;;13.02;5.85;;;;;;;;;;4945004;28;99540;-87
2023/10/10 02:40:06;;;;;;;11.82;5.35;;;;;;;;;;4963609;28;99152;-87
2023/10/10 02:42:35;;;;;;;12.20;6.53;;;;;;;;;;4967081;28;99104;-88
2023/10/10 02:45:02;;;;;;;12.90;5.78;;;;;;;;;;4953444;28;99701;-87
2023/10/10 02:47:32;;;;;;;11.00;5.80;;;;;;;;;;4931895;28;102496;-88
2023/10/10 02:50:12;;;;;;;16.33;7.00;;;;;;;;;;4942506;28;98488;-89
2023/10/10 02:52:39;;;;;;;9.95;5.00;;;;;;;;;;4968782;28;99152;-89
2023/10/10 02:55:12;;;;;;;12.18;5.70;;;;;;;;;;4946125;28;98599;-88
2023/10/10 02:57:39;;;;;;;11.82;6.28;;;;;;;;;;4954229;28;101848;-89
2023/10/10 03:00:15;;;;;;;15.55;7.10;;;;;;;;;;4946691;28;99034;-88
2023/10/10 03:02:49;;;;;;;13.07;6.10;;;;;;;;;;4950477;28;98928;-88
2023/10/10 03:05:20;;;;;;;11.95;5.97;;;;;;;;;;4945071;28;100261;-89
2023/10/10 03:07:51;;;;;;;15.15;6.13;;;;;;;;;;4960582;28;101768;-88
2023/10/10 03:10:22;;;;;;;11.70;5.35;;;;;;;;;;4957544;28;99587;-87
2023/10/10 03:12:51;;;;;;;12.38;5.28;;;;;;;;;;4932673;28;99413;-87
2023/10/10 03:18:04;;;;;;;16.90;8.77;;;;;;;;;;4947701;28;101395;-88
2023/10/10 03:28:30;;;;;;;18.80;9.50;;;;;;;;;;4960074;28;99762;-87
2023/10/10 03:33:44;;;;;;;;;;;;;;;;;;4960412;28;101746;-88
2023/10/10 05:23:29;;;;;;;15.45;8.48;;;;;;;;;;4959430;28;100028;-88
2023/10/10 05:23:30;;;;;;;19.55;11.07;;;;;;;;;;4951538;28;100154;-86
2023/10/10 05:25:59;;;;;;;12.95;6.65;;;;;;;;;;4954335;28;100351;-87
2023/10/10 05:28:30;;;;;;;12.60;7.03;;;;;;;;;;4959262;28;98575;-87
2023/10/10 05:30:57;;;;;;;12.57;6.68;;;;;;;;;;4955797;28;98862;-86
2023/10/10 05:33:26;;;;;;;14.98;7.15;;;;;;;;;;4966113;28;99135;-87
2023/10/10 05:36:00;;;;;;;16.50;8.40;;;;;;;;;;4961011;28;99014;-85
2023/10/10 05:38:26;;;;;;;14.32;7.93;;;;;;;;;;4969970;28;98890;-87
2023/10/10 05:40:53;;;;;;;17.25;9.27;;;;;;;;;;4955114;28;98701;-87
2023/10/10 05:43:26;;;;;;;16.58;8.63;;;;;;;;;;4954543;28;100700;-87
2023/10/10 05:45:56;;;;;;;16.00;9.43;;;;;;;;;;4946770;28;99501;-85
2023/10/10 05:48:23;;;;;;;15.23;8.02;;;;;;;;;;4965591;28;99044;-87
2023/10/10 05:50:50;;;;;;;;;;;;;;;;;;4958132;28;99657;-87
2023/10/10 05:53:18;;;;;;;15.40;8.90;;;;;;;;;;4959589;28;99125;-86
2023/10/10 05:55:50;;;;;;;15.27;8.75;;;;;;;;;;4939951;28;98583;-86
2023/10/10 05:58:20;;;;;;;15.50;8.23;;;;;;;;;;4961716;28;103343;-87
2023/10/10 06:00:48;;;;;;;17.23;8.57;;;;;;;;;;4946922;28;99148;-86
2023/10/10 06:03:16;;;;;;;18.42;10.63;;;;;;;;;;4961283;28;98841;-86
2023/10/10 06:05:49;;;;;;;18.67;9.52;;;;;;;;;;4959514;28;99230;-86
2023/10/10 06:08:16;;;;;;;15.98;8.68;;;;;;;;;;4952321;28;98061;-86
2023/10/10 06:10:43;;;;;;;14.38;7.75;;;;;;;;;;4958475;28;99123;-87
2023/10/10 06:13:11;;;;;;;15.98;8.88;;;;;;;;;;4959943;28;100338;-86
2023/10/10 06:15:39;;;;;;;14.50;8.48;;;;;;;;;;4969201;28;99284;-86
2023/10/10 06:18:08;;;;;;;14.32;7.78;;;;;;;;;;4965761;28;102190;-86
2023/10/10 06:20:44;;;;;;;14.90;8.27;;;;;;;;;;4950656;28;99172;-88
2023/10/10 06:23:20;;;;;;;15.07;8.00;;;;;;;;;;4963328;28;98451;-87
2023/10/10 06:25:48;;;;;;;15.77;8.55;;;;;;;;;;4958126;28;98531;-87
2023/10/10 06:28:26;;;;;;;13.88;8.27;;;;;;;;;;4979482;28;98833;-86
2023/10/10 06:30:53;;;;;;;16.65;8.85;;;;;;;;;;4965753;28;98741;-86
2023/10/10 06:33:29;;;;;;;13.75;7.95;;;;;;;;;;4954123;28;97988;-83
2023/10/10 06:38:59;;;;;;;17.02;7.00;;;;;;;;;;4959344;28;98803;-83
2023/10/10 06:41:27;;;;;;;13.07;6.35;;;;;;;;;;4932168;28;99785;-83
2023/10/10 06:43:54;;;;;;;12.52;6.53;;;;;;;;;;4944360;28;98482;-83
2023/10/10 06:46:23;;;;;;;11.70;6.07;;;;;;;;;;4959487;28;101217;-82
2023/10/10 06:48:50;;;;;;;11.57;5.53;;;;;;;;;;4942040;28;98741;-83
2023/10/10 06:51:22;;;;;;;10.90;5.32;;;;;;;;;;4954810;28;98913;-83
2023/10/10 06:53:54;;;;;;;10.77;5.05;;;;;;;;;;4950954;28;100346;-82
2023/10/10 06:56:43;;;;;;;9.80;4.53;;;;;;;;;;4960985;28;98699;-83
2023/10/10 06:59:16;;;;;;;8.80;4.68;;;;;;;;;;4947333;28;100188;-83
2023/10/10 07:01:45;;;;;;;9.88;4.63;;;;;;;;;;4942692;28;101459;-83
2023/10/10 07:04:13;;;;;;;9.88;4.57;;;;;;;;;;4936273;28;99310;-83
2023/10/10 07:06:47;;;;;;;9.25;4.53;;;;;;;;;;4966230;28;99478;-83
2023/10/10 07:09:14;;;;;;;9.10;4.38;;;;;;;;;;4935694;28;98765;-83
2023/10/10 07:11:41;;;;;;;;;;;;;;;;;;4944627;28;98817;-82
2023/10/10 07:14:10;;;;;;;9.05;4.50;;;;;;;;;;4933202;28;114081;-82
2023/10/10 07:16:42;;;;;;;8.18;4.10;;;;;;;;;;4954186;28;98909;-83
2023/10/10 07:19:19;;;;;;;9.20;4.40;;;;;;;;;;4933549;28;98952;-83
2023/10/10 07:21:47;;;;;;;9.18;4.50;;;;;;;;;;4951269;28;99051;-83
2023/10/10 07:24:15;;;;;;;10.68;4.80;;;;;;;;;;4933053;28;97916;-82
2023/10/10 07:26:43;;;;;;;8.77;4.55;;;;;;;;;;4957263;28;98935;-83
2023/10/10 07:29:57;;;;;;;9.52;4.60;;;;;;;;;;4944269;28;100918;-83
2023/10/10 07:32:18;;;;;;;10.82;5.30;;;;;;;;;;4947103;28;99454;-84
2023/10/10 07:34:51;;;;;;;9.80;4.78;;;;;;;;;;4942034;28;99594;-83
2023/10/10 07:37:18;;;;;;;12.30;5.72;;;;;;;;;;4955988;28;99268;-83
2023/10/10 07:42:27;;;;;;;10.90;6.05;;;;;;;;;;4950508;28;106249;-83
2023/10/10 07:44:57;;;;;;;12.20;6.30;;;;;;;;;;4942598;28;98856;-83
2023/10/10 07:47:26;;;;;;;10.77;5.60;;;;;;;;;;4964520;28;98986;-84
2023/10/10 07:49:54;;;;;;;10.57;5.90;;;;;;;;;;4915040;28;101519;-82
2023/10/10 07:52:22;;;;;;;9.73;5.57;;;;;;;;;;4952132;28;98953;-83
2023/10/10 07:55:03;;;;;;;9.52;5.22;;;;;;;;;;4950626;28;99260;-86
2023/10/10 07:57:51;;;;;;;10.85;5.20;;;;;;;;;;4948618;28;99603;-83
2023/10/10 08:00:24;;;;;;;10.68;5.70;;;;;;;;;;4943780;28;99462;-84
2023/10/10 08:02:53;;;;;;;10.38;5.40;;;;;;;;;;4950310;28;101171;-83
2023/10/10 08:05:20;;;;;;;10.18;5.78;;;;;;;;;;4954422;28;98950;-83
2023/10/10 08:07:47;;;;;;;10.75;5.20;;;;;;;;;;4957421;28;98929;-83
2023/10/10 08:10:28;;;;;;;10.38;5.20;;;;;;;;;;4937924;28;102388;-85
2023/10/10 08:12:56;;;;;;;10.07;5.28;;;;;;;;;;4941843;28;99610;-85
2023/10/10 08:15:26;;;;;;;10.20;5.15;;;;;;;;;;4940899;28;100808;-84
2023/10/10 08:17:54;;;;;;;9.32;4.95;;;;;;;;;;4955906;28;98558;-80
2023/10/10 08:21:22;;;;;;;10.00;4.68;;;;;;;;;;4942309;28;100014;-84
2023/10/10 08:23:24;;;;;;;10.95;4.88;;;;;;;;;;4929791;28;99809;-83
2023/10/10 08:25:51;;;;;;;8.55;4.88;;;;;;;;;;4959092;28;98585;-84
2023/10/10 08:28:21;;;;;;;10.80;4.90;;;;;;;;;;4959707;28;100346;-84
2023/10/10 08:30:51;;;;;;;8.90;4.72;;;;;;;;;;4953916;28;99207;-83
2023/10/10 08:33:18;;;;;;;9.13;4.70;;;;;;;;;;4958231;28;98591;-83
2023/10/10 08:35:44;;;;;;;10.13;4.95;;;;;;;;;;4961043;28;99433;-83
2023/10/10 08:38:14;;;;;;;9.50;5.00;;;;;;;;;;4940428;28;98994;-83
2023/10/10 08:40:41;;;;;;;8.43;4.00;;;;;;;;;;4944801;28;99477;-83
2023/10/10 08:43:09;;;;;;;8.25;3.95;;;;;;;;;;4945352;28;99210;-84
2023/10/10 08:45:43;;;;;;;8.07;3.97;;;;;;;;;;4958789;28;99307;-83
2023/10/10 08:48:15;;;;;;;7.93;3.67;;;;;;;;;;4950304;28;99701;-82
2023/10/10 08:50:44;;;;;;;9.38;3.90;;;;;;;;;;4953140;28;99296;-83
2023/10/10 08:53:12;;;;;;;8.35;4.25;;;;;;;;;;4950590;28;98585;-83
2023/10/10 08:55:40;;;;;;;9.80;4.30;;;;;;;;;;4945348;28;99609;-83
2023/10/10 08:58:07;;;;;;;8.73;4.57;;;;;;;;;;4957627;28;99422;-83
2023/10/10 09:00:35;;;;;;;8.25;4.18;;;;;;;;;;4950476;28;98869;-83
2023/10/10 09:03:01;;;;;;;8.55;4.07;;;;;;;;;;4945967;28;99239;-83
2023/10/10 09:05:28;;;;;;;8.18;3.67;;;;;;;;;;4956872;28;98112;-83
2023/10/10 09:08:05;;;;;;;8.57;4.18;;;;;;;;;;4957036;28;98585;-84
2023/10/10 09:10:39;;;;;;;7.65;3.90;;;;;;;;;;4931124;28;102556;-84
2023/10/10 09:13:07;;;;;;;7.93;3.67;;;;;;;;;;4933574;28;99781;-84
2023/10/10 09:15:37;;;;;;;7.25;3.58;;;;;;;;;;4938738;28;102152;-84
2023/10/10 09:18:17;;;;;;;8.05;3.58;;;;;;;;;;4949716;28;99191;-84
2023/10/10 09:20:47;;;;;;;7.80;4.10;;;;;;;;;;4950223;28;98837;-84
2023/10/10 09:23:21;;;;;;;8.07;3.58;;;;;;;;;;4937250;28;99236;-84
2023/10/10 09:26:08;;;;;;;7.45;3.83;;;;;;;;;;4944344;28;99330;-85
2023/10/10 09:28:58;;;;;;;7.85;3.20;;;;;;;;;;4948789;28;104247;-84
2023/10/10 09:31:31;;;;;;;7.20;3.42;;;;;;;;;;4945782;28;98865;-85
2023/10/10 09:34:06;;;;;;;8.15;4.05;;;;;;;;;;4945456;28;100179;-84
2023/10/10 09:36:38;;;;;;;7.80;3.80;;;;;;;;;;4934302;28;99442;-85
2023/10/10 09:39:36;;;;;;;7.00;3.28;;;;;;;;;;4931563;28;100053;-85
2023/10/10 09:49:43;;;;;;;8.13;3.30;;;;;;;;;;4935157;28;98669;-85
2023/10/10 09:57:58;;;;;;;6.72;3.33;;;;;;;;;;4954334;28;98788;-85
2023/10/10 10:00:31;;;;;;;7.03;3.47;;;;;;;;;;4949405;28;103989;-85
2023/10/10 10:03:24;;;;;;;6.18;3.33;;;;;;;;;;4947347;28;99090;-85
2023/10/10 10:05:58;;;;;;;7.70;3.58;;;;;;;;;;4944189;28;99397;-85
2023/10/10 10:08:42;;;;;;;6.90;3.67;;;;;;;;;;4948537;28;103814;-84
2023/10/10 10:11:18;;;;;;;6.93;3.60;;;;;;;;;;4945454;28;99328;-84
2023/10/10 10:13:51;;;;;;;7.90;3.60;;;;;;;;;;4947639;28;99372;-84
2023/10/10 10:16:44;;;;;;;6.97;3.53;;;;;;;;;;4964403;28;98935;-84
2023/10/10 10:19:14;;;;;;;7.95;3.30;;;;;;;;;;4935950;28;99036;-83
2023/10/10 10:24:30;;;;;;;6.32;3.00;;;;;;;;;;4938410;28;98283;-83
2023/10/10 10:27:24;;;;;;;8.02;3.25;;;;;;;;;;4957428;28;98863;-84
2023/10/10 10:29:55;;;;;;;6.10;3.05;;;;;;;;;;4936788;28;99967;-84
2023/10/10 10:32:24;;;;;;;7.28;2.70;;;;;;;;;;4945986;28;99772;-84
2023/10/10 10:34:57;;;;;;;6.18;3.08;;;;;;;;;;4930987;28;99027;-84
2023/10/10 10:37:25;;;;;;;7.05;3.10;;;;;;;;;;4955109;28;98504;-84
2023/10/10 10:42:46;;;;;;;6.57;2.90;;;;;;;;;;4958938;28;104742;-84
2023/10/10 10:45:13;;;;;;;;;;;;;;;;;;4942894;28;98721;-84
2023/10/10 10:47:47;;;;;;;6.75;3.08;;;;;;;;;;4927295;28;103794;-84
2023/10/10 10:50:19;;;;;;;;;;;;;;;;;;4924933;28;98338;-84
2023/10/10 10:52:56;;;;;;;6.05;2.90;;;;;;;;;;4922859;28;98796;-84
2023/10/10 10:55:27;;;;;;;7.68;3.22;;;;;;;;;;4918355;28;98984;-84
2023/10/10 10:58:07;;;;;;;7.00;2.75;;;;;;;;;;4948799;28;99427;-84
2023/10/10 11:01:24;;;;;;;5.47;2.67;;;;;;;;;;4948178;28;99375;-84
2023/10/10 11:03:35;;;;;;;7.07;3.08;;;;;;;;;;4937492;28;102050;-85
2023/10/10 11:06:06;;;;;;;6.15;2.80;;;;;;;;;;4928633;28;98813;-85
2023/10/10 11:13:54;;;;;;;6.40;2.80;;;;;;;;;;4927135;28;98691;-85
2023/10/10 11:16:24;;;;;;;5.90;2.78;;;;;;;;;;4948062;28;103252;-85
2023/10/10 11:18:57;;;;;;;6.78;3.08;;;;;;;;;;4929734;28;98658;-85
2023/10/10 11:21:27;;;;;;;6.00;2.45;;;;;;;;;;4944132;28;98732;-85
2023/10/10 11:23:57;;;;;;;4.57;2.40;;;;;;;;;;4947597;28;100546;-84
2023/10/10 11:26:33;;;;;;;5.75;2.58;;;;;;;;;;4965828;28;98555;-86
2023/10/10 11:29:00;;;;;;;7.55;2.78;;;;;;;;;;4956950;28;98677;-85
2023/10/10 11:31:32;;;;;;;5.50;2.65;;;;;;;;;;4958678;28;99377;-85
2023/10/10 11:34:25;;;;;;;5.30;2.28;;;;;;;;;;4944207;28;98592;-85
2023/10/10 11:37:11;;;;;;;5.72;2.40;;;;;;;;;;4954195;28;98681;-85
2023/10/10 11:39:46;;;;;;;5.18;2.42;;;;;;;;;;4948702;28;101825;-85
2023/10/10 11:42:29;;;;;;;5.35;2.80;;;;;;;;;;4961921;28;101748;-86
2023/10/10 11:45:17;;;;;;;5.25;2.45;;;;;;;;;;4945569;28;100207;-86
2023/10/10 11:47:44;;;;;;;6.38;2.92;;;;;;;;;;4943867;28;98638;-85
2023/10/10 11:50:12;;;;;;;6.78;2.90;;;;;;;;;;4938863;28;99406;-85
2023/10/10 11:52:58;;;;;;;5.75;2.70;;;;;;;;;;4930247;28;101930;-85
2023/10/10 11:55:28;;;;;;;5.65;2.90;;;;;;;;;;4941138;28;98496;-85
2023/10/10 11:58:06;;;;;;;7.57;3.53;;;;;;;;;;4928303;28;98711;-85
2023/10/10 12:00:42;;;;;;;6.53;2.88;;;;;;;;;;4933699;28;100221;-85
2023/10/10 12:03:10;;;;;;;5.97;2.60;;;;;;;;;;4945970;28;99684;-85
2023/10/10 12:05:49;;;;;;;6.05;2.80;;;;;;;;;;4961216;28;99248;-85
2023/10/10 12:08:22;;;;;;;;;;;;;;;;;;4951537;28;97946;-85
2023/10/10 12:10:52;;;;;;;5.05;2.40;;;;;;;;;;4938211;28;117148;-85
2023/10/10 12:13:33;;;;;;;6.38;2.67;;;;;;;;;;4920565;28;99841;-85
2023/10/10 12:16:07;;;;;;;6.00;2.50;;;;;;;;;;4944193;28;99868;-85
2023/10/10 12:18:34;;;;;;;5.88;2.38;;;;;;;;;;4953573;28;99404;-86
2023/10/10 12:21:01;;;;;;;6.30;2.63;;;;;;;;;;4923995;28;99470;-86
2023/10/10 12:23:30;;;;;;;5.95;2.85;;;;;;;;;;4936946;28;99220;-87
2023/10/10 12:25:59;;;;;;;5.68;2.53;;;;;;;;;;4947789;28;98915;-86
2023/10/10 12:28:26;;;;;;;6.40;2.50;;;;;;;;;;4952391;28;98583;-86
2023/10/10 12:30:56;;;;;;;5.95;2.70;;;;;;;;;;4946508;28;99030;-86
2023/10/10 12:33:23;;;;;;;6.07;2.40;;;;;;;;;;4940903;28;99561;-84
2023/10/10 12:35:50;;;;;;;6.90;2.78;;;;;;;;;;4957913;28;99355;-86
2023/10/10 12:38:23;;;;;;;5.50;2.55;;;;;;;;;;4948418;28;100034;-86
2023/10/10 12:40:50;;;;;;;6.25;2.90;;;;;;;;;;4932435;28;100557;-87
2023/10/10 12:43:17;;;;;;;5.60;2.50;;;;;;;;;;4946209;28;98598;-86
2023/10/10 12:45:45;;;;;;;5.75;2.72;;;;;;;;;;4946428;28;98966;-85
2023/10/10 12:48:20;;;;;;;5.28;2.42;;;;;;;;;;4965670;28;100171;-86
2023/10/10 12:50:47;;;;;;;5.72;2.47;;;;;;;;;;4966294;28;98879;-86
2023/10/10 12:53:19;;;;;;;6.45;2.58;;;;;;;;;;4950821;28;99200;-86
2023/10/10 12:55:48;;;;;;;5.93;2.60;;;;;;;;;;4944514;28;98585;-86
2023/10/10 12:58:16;;;;;;;5.82;2.50;;;;;;;;;;4954689;28;98406;-86
2023/10/10 13:00:50;;;;;;;5.55;2.47;;;;;;;;;;4947024;28;99201;-86
2023/10/10 13:03:22;;;;;;;5.63;2.88;;;;;;;;;;4949693;28;99146;-86
2023/10/10 13:05:54;;;;;;;5.90;2.65;;;;;;;;;;4962968;28;99649;-86
2023/10/10 13:08:24;;;;;;;6.53;2.78;;;;;;;;;;4938914;28;103967;-87
2023/10/10 13:11:02;;;;;;;5.47;2.47;;;;;;;;;;4956664;28;100190;-87
2023/10/10 13:13:31;;;;;;;5.60;2.45;;;;;;;;;;4949812;28;99262;-87
2023/10/10 13:18:43;;;;;;;6.38;2.70;;;;;;;;;;4933682;28;100500;-87
2023/10/10 13:21:10;;;;;;;5.57;2.50;;;;;;;;;;4934146;28;99276;-87
2023/10/10 13:23:41;;;;;;;6.72;2.75;;;;;;;;;;4950062;28;97935;-87
2023/10/10 13:26:08;;;;;;;6.75;2.70;;;;;;;;;;4970750;28;98610;-87
2023/10/10 13:28:36;;;;;;;;;;;;;;;;;;4970697;28;100624;-87
2023/10/10 13:31:03;;;;;;;6.05;2.63;;;;;;;;;;4972199;28;107070;-87
2023/10/10 13:33:29;;;;;;;5.78;2.30;;;;;;;;;;4967915;28;100593;-85
2023/10/10 13:35:56;;;;;;;6.35;2.55;;;;;;;;;;4955883;28;98994;-84
2023/10/10 13:38:25;;;;;;;6.45;2.40;;;;;;;;;;4965156;28;99882;-84
2023/10/10 13:40:51;;;;;;;5.70;2.40;;;;;;;;;;4986522;28;99857;-87
2023/10/10 13:43:18;;;;;;;6.85;2.95;;;;;;;;;;4984027;28;98603;-87
2023/10/10 13:45:45;;;;;;;5.72;2.42;;;;;;;;;;4985675;28;98878;-87
2023/10/10 13:48:13;;;;;;;8.90;2.80;;;;;;;;;;4980117;28;98391;-87
2023/10/10 13:50:50;;;;;;;6.63;2.58;;;;;;;;;;4965213;28;98435;-85
2023/10/10 13:53:20;;;;;;;5.85;2.30;;;;;;;;;;4973912;28;98677;-84
2023/10/10 13:55:47;;;;;;;6.00;2.60;;;;;;;;;;4980092;28;99100;-84
2023/10/10 13:58:13;;;;;;;6.28;3.03;;;;;;;;;;4972920;28;99549;-84
2023/10/10 14:00:52;;;;;;;5.55;2.67;;;;;;;;;;4957133;28;98858;-85
2023/10/10 14:03:28;;;;;;;6.57;2.83;;;;;;;;;;4944947;28;98821;-84
2023/10/10 14:06:04;;;;;;;6.53;2.72;;;;;;;;;;4932455;28;98732;-87
2023/10/10 14:08:31;;;;;;;6.85;2.70;;;;;;;;;;4945058;28;101097;-87
2023/10/10 14:11:00;;;;;;;6.22;2.72;;;;;;;;;;4931854;28;98998;-87
2023/10/10 14:13:28;;;;;;;6.32;2.83;;;;;;;;;;4932692;28;98924;-87
2023/10/10 14:15:55;;;;;;;6.43;2.67;;;;;;;;;;4944570;28;101883;-87
2023/10/10 14:18:21;;;;;;;;;;;;;;;;;;4926259;28;101074;-87
2023/10/10 14:20:50;;;;;;;5.05;2.30;;;;;;;;;;4931004;28;118867;-86
2023/10/10 14:23:21;;;;;;;5.80;2.50;;;;;;;;;;4944509;28;98637;-86
2023/10/10 14:25:49;;;;;;;5.13;2.17;;;;;;;;;;4927807;28;101472;-86
2023/10/10 14:28:16;;;;;;;6.15;2.70;;;;;;;;;;4929287;28;99051;-86
2023/10/10 14:30:44;;;;;;;5.53;2.55;;;;;;;;;;4920176;28;98648;-86
2023/10/10 14:33:10;;;;;;;5.20;2.53;;;;;;;;;;4925802;28;98787;-86
2023/10/10 14:35:37;;;;;;;5.20;2.30;;;;;;;;;;4934970;28;99192;-86
2023/10/10 14:38:04;;;;;;;5.57;2.50;;;;;;;;;;4942128;28;98085;-86
2023/10/10 14:40:32;;;;;;;5.97;2.60;;;;;;;;;;4929783;28;99451;-87
2023/10/10 14:43:05;;;;;;;5.32;2.35;;;;;;;;;;4943062;28;98683;-86
2023/10/10 14:45:33;;;;;;;6.28;2.85;;;;;;;;;;4915388;28;99883;-87
2023/10/10 14:48:04;;;;;;;5.90;2.42;;;;;;;;;;4925203;28;99640;-86
2023/10/10 14:50:37;;;;;;;5.70;2.50;;;;;;;;;;4935800;28;99052;-86
2023/10/10 14:53:08;;;;;;;6.40;2.47;;;;;;;;;;4934992;28;98911;-86
2023/10/10 14:55:39;;;;;;;6.75;2.80;;;;;;;;;;4924270;28;99204;-86
2023/10/10 14:58:09;;;;;;;12.55;5.20;;;;;;;;;;4943272;28;98853;-86
2023/10/10 15:00:41;;;;;;;12.85;5.10;;;;;;;;;;4935737;28;99511;-86
2023/10/10 15:03:13;;;;;;;13.35;5.30;;;;;;;;;;4933857;28;98123;-86
2023/10/10 15:05:47;;;;;;;11.07;5.45;;;;;;;;;;4941572;28;98772;-85
2023/10/10 15:08:14;;;;;;;13.55;6.07;;;;;;;;;;4933948;28;99855;-85
2023/10/10 15:10:40;;;;;;;14.13;5.43;;;;;;;;;;4946647;28;99713;-85
2023/10/10 15:13:11;;;;;;;12.75;5.80;;;;;;;;;;4944816;28;99602;-86
2023/10/10 15:15:45;;;;;;;12.68;5.63;;;;;;;;;;4937641;28;99730;-86
2023/10/10 15:18:12;;;;;;;10.82;5.53;;;;;;;;;;4933636;28;98924;-86
2023/10/10 15:20:45;;;;;;;13.45;5.60;;;;;;;;;;4963817;28;99664;-85
2023/10/10 15:23:21;;;;;;;12.45;5.68;;;;;;;;;;4960092;28;98746;-86
2023/10/10 15:25:54;;;;;;;12.38;5.40;;;;;;;;;;4962539;28;99079;-86
2023/10/10 15:28:21;;;;;;;12.27;5.30;;;;;;;;;;4916881;28;104583;-85
2023/10/10 15:30:49;;;;;;;10.80;5.45;;;;;;;;;;4951472;28;98796;-85
2023/10/10 15:33:21;;;;;;;11.50;5.15;;;;;;;;;;4962394;28;98891;-85
2023/10/10 15:35:52;;;;;;;13.55;5.13;;;;;;;;;;4959557;28;100356;-85
2023/10/10 15:38:19;;;;;;;12.50;5.72;;;;;;;;;;4958549;28;99460;-84
2023/10/10 15:40:45;;;;;;;11.75;5.28;;;;;;;;;;4945504;28;98921;-85
2023/10/10 15:43:12;;;;;;;14.90;5.60;;;;;;;;;;4946501;28;99235;-85
2023/10/10 15:45:58;;;;;;;;;;;;;;;;;;4926811;28;98847;-82
2023/10/10 15:48:25;;;;;;;11.48;4.72;;;;;;;;;;4964212;28;105572;-83
2023/10/10 15:50:53;;;;;;;11.48;4.60;;;;;;;;;;4963804;28;98958;-83
2023/10/10 15:53:21;;;;;;;12.20;4.35;;;;;;;;;;4957265;28;100875;-82
2023/10/10 15:58:43;;;;;;;12.25;5.00;;;;;;;;;;4938696;28;100963;-83
2023/10/10 16:01:21;;;;;;;12.13;4.45;;;;;;;;;;4957461;28;99386;-83
2023/10/10 16:03:52;;;;;;;15.88;5.43;;;;;;;;;;4949587;28;99417;-83
2023/10/10 16:06:22;;;;;;;11.00;4.45;;;;;;;;;;4970985;28;99283;-83
2023/10/10 16:08:49;;;;;;;11.07;4.70;;;;;;;;;;4968553;28;99554;-84
2023/10/10 16:11:16;;;;;;;10.73;4.32;;;;;;;;;;4937197;28;98782;-83
2023/10/10 16:13:46;;;;;;;15.48;5.72;;;;;;;;;;4942097;28;99458;-84
2023/10/10 16:16:13;;;;;;;10.48;5.10;;;;;;;;;;4955965;28;99225;-84
2023/10/10 16:18:40;;;;;;;9.73;4.18;;;;;;;;;;4966486;28;98138;-84
2023/10/10 16:21:10;;;;;;;;;;;;;;;;;;4964545;28;99129;-83
2023/10/10 16:23:37;;;;;;;12.85;4.60;;;;;;;;;;4957871;28;116505;-83
2023/10/10 16:26:06;;;;;;;10.27;4.45;;;;;;;;;;4927520;28;100160;-82
2023/10/10 16:28:36;;;;;;;11.68;5.22;;;;;;;;;;4934656;28;99638;-83
2023/10/10 16:31:10;;;;;;;9.95;4.47;;;;;;;;;;4955550;28;98925;-83
2023/10/10 16:33:37;;;;;;;9.50;3.88;;;;;;;;;;4949639;28;99142;-83
2023/10/10 16:36:17;;;;;;;11.32;4.80;;;;;;;;;;4958686;28;99100;-83
2023/10/10 16:38:44;;;;;;;12.50;5.40;;;;;;;;;;4960440;28;99307;-83
2023/10/10 16:41:11;;;;;;;12.13;5.28;;;;;;;;;;4966902;28;99441;-83
2023/10/10 16:43:38;;;;;;;10.15;4.70;;;;;;;;;;4953017;28;100662;-82
2023/10/10 16:46:25;;;;;;;11.95;4.88;;;;;;;;;;4929312;28;99239;-83
2023/10/10 16:48:52;;;;;;;10.95;4.78;;;;;;;;;;4955009;28;99068;-83
2023/10/10 16:51:20;;;;;;;12.27;5.07;;;;;;;;;;4965233;28;101174;-83
2023/10/10 16:53:52;;;;;;;11.45;4.93;;;;;;;;;;4955628;28;99576;-82
2023/10/10 16:56:21;;;;;;;11.32;4.95;;;;;;;;;;4947531;28;103969;-82
2023/10/10 16:58:51;;;;;;;11.55;5.18;;;;;;;;;;4959072;28;99188;-81
2023/10/10 17:01:20;;;;;;;11.35;4.70;;;;;;;;;;4957931;28;99884;-82
2023/10/10 17:03:54;;;;;;;11.02;5.18;;;;;;;;;;4947477;28;99732;-82
2023/10/10 17:06:22;;;;;;;11.05;5.63;;;;;;;;;;4950729;28;98818;-81
2023/10/10 17:08:52;;;;;;;11.52;4.82;;;;;;;;;;4948985;28;100445;-82
2023/10/10 17:11:20;;;;;;;13.95;5.60;;;;;;;;;;4931981;28;99441;-82
2023/10/10 17:13:49;;;;;;;12.23;5.22;;;;;;;;;;4945755;28;99011;-81
2023/10/10 17:16:25;;;;;;;11.75;4.95;;;;;;;;;;4943469;28;100909;-84
2023/10/10 17:18:53;;;;;;;14.75;4.90;;;;;;;;;;4963881;28;99920;-87
2023/10/10 17:21:23;;;;;;;10.30;4.63;;;;;;;;;;4943386;28;100422;-86
2023/10/10 17:23:50;;;;;;;12.27;4.40;;;;;;;;;;4960882;28;99514;-86
2023/10/10 17:26:26;;;;;;;11.60;4.88;;;;;;;;;;4963290;28;98649;-85
2023/10/10 17:28:54;;;;;;;12.23;4.50;;;;;;;;;;4940741;28;99050;-85
2023/10/10 17:31:24;;;;;;;12.63;4.65;;;;;;;;;;4957668;28;99156;-85
2023/10/10 17:33:51;;;;;;;10.82;4.57;;;;;;;;;;4960616;28;98060;-85
2023/10/10 17:36:18;;;;;;;;;;;;;;;;;;4946056;28;99198;-85
2023/10/10 17:38:46;;;;;;;10.13;4.57;;;;;;;;;;4954002;28;106090;-85
2023/10/10 17:41:13;;;;;;;11.73;5.03;;;;;;;;;;4964853;28;99815;-85